Time;durP1;ratioP1;P1;durP2;ratioP2;P2;SDS_P1;SDS_P2;PMS_P1;PMS_P2;Temp;Humidity;BMP_temperature;BMP_pressure;BME280_temperature;BME280_humidity;BME280_pressure;Samples;Min_cycle;Max_cycle;Signal;HPM_P1;HPM_P2
2021/12/03 00:01:12;;;;;;;46.03;25.10;;;;;;;0.72;95.06;97545.84;4947378;28;20046;-86
2021/12/03 00:03:38;;;;;;;49.35;26.13;;;;;;;0.79;94.72;97540.78;4979405;28;20038;-86
2021/12/03 00:06:04;;;;;;;43.30;23.77;;;;;;;0.73;94.77;97536.50;4961820;28;20370;-85
2021/12/03 00:08:30;;;;;;;42.53;21.45;;;;;;;0.72;95.03;97530.53;4954666;28;20051;-86
2021/12/03 00:10:58;;;;;;;46.42;25.23;;;;;;;0.71;94.88;97536.50;4957031;28;20062;-85
2021/12/03 00:13:24;;;;;;;41.55;22.75;;;;;;;0.74;95.06;97538.22;4964978;28;20039;-85
2021/12/03 00:15:50;;;;;;;42.60;22.25;;;;;;;0.80;94.91;97540.75;4937938;28;20026;-86
2021/12/03 00:18:16;;;;;;;52.28;26.50;;;;;;;0.66;95.22;97532.25;4957732;28;20097;-85
2021/12/03 00:20:42;;;;;;;37.83;22.08;;;;;;;0.74;95.44;97543.31;4949244;28;20034;-86
2021/12/03 00:23:08;;;;;;;44.85;25.48;;;;;;;0.74;94.92;97533.97;4942439;28;20440;-86
2021/12/03 00:25:34;;;;;;;48.50;25.38;;;;;;;0.75;95.42;97529.69;4972303;28;20030;-86
2021/12/03 00:28:00;;;;;;;;;;;;;;;0.86;95.49;97545.00;4971277;28;20130;-86
2021/12/03 00:30:26;;;;;;;39.90;21.92;;;;;;;0.80;95.05;97538.22;4950808;28;19918;-88
2021/12/03 00:32:51;;;;;;;;;;;;;;;0.85;94.80;97544.16;4933574;28;20566;-88
2021/12/03 00:35:17;;;;;;;38.33;22.60;;;;;;;0.71;95.29;97522.88;4977306;28;19974;-84
2021/12/03 00:37:43;;;;;;;;;;;;;;;0.86;95.06;97548.41;4951882;28;20038;-85
2021/12/03 00:40:11;;;;;;;37.83;21.33;;;;;;;0.78;95.27;97529.72;4963279;28;19912;-87
2021/12/03 00:42:37;;;;;;;40.10;22.42;;;;;;;0.84;95.06;97539.06;4949033;28;20155;-87
2021/12/03 00:45:04;;;;;;;42.63;25.17;;;;;;;0.87;94.65;97536.50;4937394;28;20470;-85
2021/12/03 00:47:30;;;;;;;41.22;24.23;;;;;;;0.87;94.52;97534.81;4969087;28;20042;-87
2021/12/03 00:49:56;;;;;;;38.25;22.20;;;;;;;0.90;94.63;97537.34;4961880;28;20074;-85
2021/12/03 00:52:22;;;;;;;36.53;22.00;;;;;;;0.93;94.16;97542.47;4966909;28;20065;-85
2021/12/03 00:54:49;;;;;;;39.60;24.45;;;;;;;0.93;94.17;97539.91;4984531;28;20109;-86
2021/12/03 00:57:15;;;;;;;33.00;18.60;;;;;;;0.99;94.25;97539.06;4940945;28;20429;-85
2021/12/03 00:59:41;;;;;;;35.75;21.52;;;;;;;0.96;94.26;97542.47;4951350;28;20030;-83
2021/12/03 01:02:07;;;;;;;43.08;22.85;;;;;;;1.02;94.26;97550.13;4964148;28;20038;-84
2021/12/03 01:04:33;;;;;;;37.17;24.17;;;;;;;0.97;94.21;97562.03;4965234;28;20042;-85
2021/12/03 01:06:58;;;;;;;;;;;;;;;0.98;93.78;97550.97;4983208;28;20521;-85
2021/12/03 01:09:24;;;;;;;36.95;23.50;;;;;;;0.99;93.99;97549.28;4961041;28;19926;-85
2021/12/03 01:11:50;;;;;;;41.83;25.27;;;;;;;0.89;93.84;97533.09;4986719;28;20052;-85
2021/12/03 01:14:16;;;;;;;35.95;20.30;;;;;;;1.00;94.33;97540.75;4984286;28;20061;-85
2021/12/03 01:16:42;;;;;;;37.50;24.33;;;;;;;0.99;93.73;97559.47;4970278;28;20054;-85
2021/12/03 01:19:08;;;;;;;33.42;19.73;;;;;;;0.94;93.89;97571.41;4985662;28;20037;-85
2021/12/03 01:21:34;;;;;;;34.22;21.95;;;;;;;0.98;94.36;97583.31;4970457;28;20065;-85
2021/12/03 01:23:59;;;;;;;36.20;20.98;;;;;;;0.94;94.17;97562.03;4982401;28;20512;-85
2021/12/03 01:26:25;;;;;;;38.03;22.92;;;;;;;0.99;94.31;97574.81;4951517;28;20053;-85
2021/12/03 01:28:52;;;;;;;34.70;21.00;;;;;;;1.07;93.92;97572.25;4980499;28;20129;-85
2021/12/03 01:31:18;;;;;;;35.72;23.08;;;;;;;1.05;93.96;97577.34;4967088;28;20038;-85
2021/12/03 01:33:45;;;;;;;32.97;20.95;;;;;;;1.11;93.69;97591.84;4968038;28;20379;-84
2021/12/03 01:36:11;;;;;;;34.03;20.95;;;;;;;1.02;94.00;97577.38;4981665;28;20038;-83
2021/12/03 01:38:36;;;;;;;40.35;23.88;;;;;;;1.05;93.86;97590.09;4934451;28;20022;-85
2021/12/03 01:41:02;;;;;;;35.00;21.85;;;;;;;1.01;93.71;97598.66;4950717;28;20401;-85
2021/12/03 01:43:28;;;;;;;31.13;19.00;;;;;;;1.12;94.05;97608.84;4965895;28;20441;-85
2021/12/03 01:45:58;;;;;;;35.28;21.35;;;;;;;1.09;93.87;97602.03;4967255;28;20042;-85
2021/12/03 01:48:25;;;;;;;36.70;22.95;;;;;;;1.10;93.28;97613.09;4961039;28;20041;-84
2021/12/03 01:50:50;;;;;;;33.47;18.65;;;;;;;1.16;93.50;97608.84;4984913;28;20030;-85
2021/12/03 01:53:17;;;;;;;34.45;22.77;;;;;;;1.10;93.49;97608.88;4968092;28;20057;-83
2021/12/03 01:55:44;;;;;;;35.28;22.58;;;;;;;1.08;93.42;97610.53;4960666;28;20133;-84
2021/12/03 01:58:10;;;;;;;39.72;23.58;;;;;;;1.11;93.41;97612.25;5001582;28;20386;-84
2021/12/03 02:00:47;;;;;;;34.38;22.48;;;;;;;1.15;93.32;97635.25;4985761;28;20045;-85
2021/12/03 02:03:14;;;;;;;34.72;21.67;;;;;;;1.15;93.31;97624.19;4986028;28;20476;-85
2021/12/03 02:05:40;;;;;;;32.88;20.60;;;;;;;1.17;93.68;97641.19;4984945;28;20030;-85
2021/12/03 02:08:06;;;;;;;35.40;21.15;;;;;;;1.14;93.41;97632.66;4983413;28;20037;-84
2021/12/03 02:10:31;;;;;;;34.17;21.27;;;;;;;1.14;93.51;97640.34;4983756;28;20116;-84
2021/12/03 02:12:57;;;;;;;37.60;21.63;;;;;;;1.06;93.88;97626.72;4967654;28;20530;-84
2021/12/03 02:15:23;;;;;;;37.78;24.27;;;;;;;1.05;93.66;97625.84;4965984;28;20019;-86
2021/12/03 02:17:49;;;;;;;36.35;21.17;;;;;;;1.11;93.57;97630.13;4951425;28;20386;-84
2021/12/03 02:20:17;;;;;;;32.72;19.10;;;;;;;1.10;93.68;97623.31;4950395;28;20133;-85
2021/12/03 02:22:43;;;;;;;34.92;21.73;;;;;;;1.18;93.49;97631.84;4980671;28;20070;-85
2021/12/03 02:25:12;;;;;;;32.45;20.65;;;;;;;1.19;93.56;97624.19;4964846;28;20054;-86
2021/12/03 02:27:38;;;;;;;32.60;20.05;;;;;;;1.13;93.48;97610.56;4949515;28;20073;-85
2021/12/03 02:30:04;;;;;;;35.60;20.70;;;;;;;1.25;92.95;97618.22;4977680;28;20054;-85
2021/12/03 02:32:30;;;;;;;30.63;19.60;;;;;;;1.20;92.98;97625.03;4970211;28;20034;-85
2021/12/03 02:34:56;;;;;;;36.88;23.80;;;;;;;1.12;92.78;97621.63;4964224;28;20009;-86
2021/12/03 02:37:22;;;;;;;31.70;20.42;;;;;;;1.20;93.37;97645.47;4953959;28;20128;-84
2021/12/03 02:39:48;;;;;;;34.03;22.65;;;;;;;1.15;93.13;97629.28;4996990;28;20034;-83
2021/12/03 02:42:13;;;;;;;32.75;20.88;;;;;;;1.12;93.01;97625.03;4979934;28;20139;-85
2021/12/03 02:44:39;;;;;;;35.60;21.30;;;;;;;1.24;92.83;97642.91;4990725;28;20034;-83
2021/12/03 02:47:05;;;;;;;35.00;22.20;;;;;;;1.20;92.86;97636.09;4980677;28;20042;-85
2021/12/03 02:49:36;;;;;;;32.88;20.05;;;;;;;1.17;93.06;97638.66;4949464;28;20408;-85
2021/12/03 02:52:02;;;;;;;31.25;19.08;;;;;;;1.12;93.03;97621.63;4981374;28;20054;-85
2021/12/03 02:54:28;;;;;;;38.95;22.85;;;;;;;1.17;93.13;97627.59;4986331;28;20037;-84
2021/12/03 02:56:54;;;;;;;36.78;23.58;;;;;;;1.14;93.26;97630.97;4973091;28;20386;-84
2021/12/03 02:59:20;;;;;;;37.80;21.27;;;;;;;1.13;93.40;97628.44;4965139;28;20033;-84
2021/12/03 03:01:45;;;;;;;33.88;21.90;;;;;;;1.11;93.12;97630.13;4971906;28;20052;-85
2021/12/03 03:04:11;;;;;;;37.35;23.08;;;;;;;1.09;93.05;97631.81;4983705;28;20093;-85
2021/12/03 03:06:37;;;;;;;36.13;21.52;;;;;;;1.12;93.13;97631.84;4964527;28;20042;-85
2021/12/03 03:09:07;;;;;;;32.63;20.67;;;;;;;1.11;93.29;97625.03;4971639;28;20042;-86
2021/12/03 03:11:34;;;;;;;34.17;20.70;;;;;;;1.10;93.36;97618.19;4983509;28;20069;-85
2021/12/03 03:14:02;;;;;;;34.70;21.63;;;;;;;1.15;93.14;97652.28;4971141;28;20042;-85
2021/12/03 03:16:31;;;;;;;37.33;23.48;;;;;;;1.11;93.17;97645.47;4959817;28;20069;-84
2021/12/03 03:18:57;;;;;;;29.10;18.65;;;;;;;1.20;93.22;97650.56;4957822;28;20038;-85
2021/12/03 03:21:23;;;;;;;36.78;23.15;;;;;;;1.10;92.77;97638.63;4953573;28;20038;-85
2021/12/03 03:23:50;;;;;;;33.47;20.50;;;;;;;1.10;92.97;97648.84;4949368;28;20037;-85
2021/12/03 03:26:16;;;;;;;32.83;21.38;;;;;;;1.09;92.86;97648.00;4977437;28;20050;-86
2021/12/03 03:28:43;;;;;;;38.10;23.17;;;;;;;1.04;92.84;97656.50;4965215;28;20552;-86
2021/12/03 03:31:09;;;;;;;39.00;22.83;;;;;;;1.06;93.20;97657.38;4948106;28;20038;-84
2021/12/03 03:33:35;;;;;;;38.25;23.83;;;;;;;1.01;93.19;97670.97;4969063;28;20053;-84
2021/12/03 03:36:01;;;;;;;39.83;23.75;;;;;;;0.88;93.76;97656.50;4946765;28;20053;-86
2021/12/03 03:38:27;;;;;;;41.58;25.40;;;;;;;0.89;93.82;97647.13;4950860;28;20521;-84
2021/12/03 03:40:53;;;;;;;41.58;22.05;;;;;;;0.95;93.91;97652.22;4967805;28;20177;-84
2021/12/03 03:43:19;;;;;;;37.28;23.77;;;;;;;0.97;93.67;97661.59;4990728;28;20038;-84
2021/12/03 03:45:46;;;;;;;36.03;22.38;;;;;;;0.84;93.82;97661.59;4946706;28;20046;-82
2021/12/03 03:48:12;;;;;;;39.97;22.75;;;;;;;0.91;93.87;97669.22;4961135;28;20121;-82
2021/12/03 03:50:38;;;;;;;37.92;22.52;;;;;;;0.88;93.77;97665.84;4991794;28;20100;-82
2021/12/03 03:53:05;;;;;;;41.40;24.85;;;;;;;0.94;94.10;97673.50;4946476;28;20085;-82
2021/12/03 03:55:34;;;;;;;37.70;21.80;;;;;;;0.91;94.12;97673.50;4945613;28;20121;-85
2021/12/03 03:58:01;;;;;;;33.47;19.65;;;;;;;1.01;94.18;97686.31;4962130;28;20507;-81
2021/12/03 04:00:32;;;;;;;38.08;23.42;;;;;;;1.03;94.24;97678.63;4960162;28;20524;-84
2021/12/03 04:02:58;;;;;;;38.20;23.00;;;;;;;0.98;93.65;97691.38;4962745;28;20483;-85
2021/12/03 04:05:23;;;;;;;29.67;19.17;;;;;;;0.95;93.57;97693.94;4960193;28;20039;-86
2021/12/03 04:07:49;;;;;;;32.80;18.77;;;;;;;1.04;93.27;97702.47;4944691;28;20077;-86
2021/12/03 04:10:15;;;;;;;29.65;18.65;;;;;;;1.08;93.51;97696.50;4950861;28;20130;-87
2021/12/03 04:12:41;;;;;;;31.05;19.73;;;;;;;1.08;93.26;97707.56;4961830;28;20074;-85
2021/12/03 04:15:09;;;;;;;31.33;19.60;;;;;;;1.14;93.06;97707.56;4961653;28;20124;-86
2021/12/03 04:17:38;;;;;;;29.40;19.02;;;;;;;1.17;93.07;97705.03;4965398;28;20045;-85
2021/12/03 04:20:05;;;;;;;30.33;18.38;;;;;;;1.19;92.91;97705.03;4958199;28;20045;-86
2021/12/03 04:22:32;;;;;;;33.00;21.02;;;;;;;1.16;92.67;97707.59;4962095;28;20045;-86
2021/12/03 04:24:58;;;;;;;29.38;19.13;;;;;;;1.12;92.53;97713.56;4948176;28;20033;-87
2021/12/03 04:27:24;;;;;;;29.23;18.63;;;;;;;1.10;92.50;97720.34;4940860;28;20421;-87
2021/12/03 04:29:51;;;;;;;29.58;17.30;;;;;;;1.15;92.19;97716.13;4975449;28;20080;-86
2021/12/03 04:32:19;;;;;;;27.42;18.98;;;;;;;1.11;92.19;97722.06;4944084;28;20039;-86
2021/12/03 04:34:45;;;;;;;27.65;17.40;;;;;;;1.19;91.99;97716.13;4943651;28;20529;-84
2021/12/03 04:37:11;;;;;;;28.90;17.25;;;;;;;1.14;92.05;97711.84;4945777;28;20129;-86
2021/12/03 04:39:37;;;;;;;27.83;16.15;;;;;;;1.18;91.94;97713.56;4945296;28;20054;-87
2021/12/03 04:42:03;;;;;;;29.00;20.17;;;;;;;1.16;92.05;97717.81;4945536;28;20058;-85
2021/12/03 04:44:29;;;;;;;30.70;21.02;;;;;;;1.25;91.35;97725.50;4942183;28;20030;-87
2021/12/03 04:46:55;;;;;;;25.88;17.13;;;;;;;1.23;91.95;97716.97;4972216;28;20585;-85
2021/12/03 04:49:20;;;;;;;30.00;18.98;;;;;;;1.18;91.49;97714.41;4957395;28;20035;-86
2021/12/03 04:51:46;;;;;;;35.35;22.20;;;;;;;1.16;91.33;97726.31;4936883;28;20043;-86
2021/12/03 04:54:12;;;;;;;26.60;17.90;;;;;;;1.19;91.30;97723.78;4946487;28;20082;-86
2021/12/03 04:56:37;;;;;;;26.77;17.17;;;;;;;1.16;91.15;97716.13;4974022;28;20560;-86
2021/12/03 04:59:03;;;;;;;29.48;17.77;;;;;;;1.16;91.06;97707.59;4956552;28;20041;-86
2021/12/03 05:01:29;;;;;;;31.88;17.75;;;;;;;1.14;90.80;97714.38;4962581;28;20045;-88
2021/12/03 05:03:55;;;;;;;25.95;17.38;;;;;;;1.10;90.60;97720.34;4944421;28;20409;-86
2021/12/03 05:06:30;;;;;;;25.15;15.35;;;;;;;1.20;90.52;97733.16;4944921;28;20125;-86
2021/12/03 05:08:56;;;;;;;25.73;15.73;;;;;;;1.18;90.44;97721.22;4961968;28;20553;-85
2021/12/03 05:11:21;;;;;;;26.85;19.00;;;;;;;1.18;89.91;97734.84;4959098;28;20084;-86
2021/12/03 05:13:47;;;;;;;24.38;16.55;;;;;;;1.19;89.65;97726.34;4961578;28;20077;-86
2021/12/03 05:16:13;;;;;;;24.27;16.15;;;;;;;1.20;89.40;97727.19;4961164;28;20049;-87
2021/12/03 05:18:42;;;;;;;;;;;;;;;1.23;89.66;97747.59;4958683;28;20034;-85
2021/12/03 05:21:07;;;;;;;23.75;15.30;;;;;;;1.08;89.69;97719.50;4976906;28;20385;-85
2021/12/03 05:23:33;;;;;;;29.92;18.65;;;;;;;1.09;89.67;97734.81;4960413;28;20180;-86
2021/12/03 05:25:59;;;;;;;27.90;17.48;;;;;;;1.11;89.62;97737.38;4957580;28;20109;-87
2021/12/03 05:28:25;;;;;;;23.55;16.15;;;;;;;1.10;89.02;97735.66;4956935;28;20041;-86
2021/12/03 05:30:51;;;;;;;23.58;15.43;;;;;;;1.16;89.37;97745.91;4941860;28;20039;-86
2021/12/03 05:33:19;;;;;;;23.70;15.00;;;;;;;1.07;89.41;97745.88;4960612;28;20061;-86
2021/12/03 05:35:45;;;;;;;22.73;14.70;;;;;;;1.11;88.75;97752.72;4948522;28;20509;-87
2021/12/03 05:38:11;;;;;;;24.10;17.83;;;;;;;0.99;89.15;97759.47;4948305;28;20041;-86
2021/12/03 05:40:37;;;;;;;23.60;17.13;;;;;;;0.96;88.62;97767.13;4947953;28;20482;-85
2021/12/03 05:43:03;;;;;;;24.13;15.05;;;;;;;1.07;88.91;97766.31;4977740;28;20042;-86
2021/12/03 05:45:30;;;;;;;23.63;14.70;;;;;;;0.95;88.67;97774.78;4962436;28;20494;-85
2021/12/03 05:47:55;;;;;;;27.40;16.02;;;;;;;0.94;88.91;97767.97;4948701;28;20048;-85
2021/12/03 05:50:21;;;;;;;25.90;15.88;;;;;;;0.89;88.92;97765.41;4948586;28;20050;-86
2021/12/03 05:52:48;;;;;;;25.17;16.10;;;;;;;0.92;88.82;97774.78;4978294;28;20475;-86
2021/12/03 05:55:13;;;;;;;22.80;15.70;;;;;;;0.81;89.04;97768.75;4964431;28;20122;-85
2021/12/03 05:57:39;;;;;;;23.52;15.25;;;;;;;0.84;89.12;97795.16;4964677;28;20042;-86
2021/12/03 06:00:07;;;;;;;23.40;16.73;;;;;;;0.76;89.11;97802.78;4974601;28;20516;-85
2021/12/03 06:02:33;;;;;;;27.42;16.20;;;;;;;0.71;88.76;97791.69;4964784;28;20042;-85
2021/12/03 06:04:59;;;;;;;21.25;15.20;;;;;;;0.80;88.85;97803.66;4964905;28;20408;-86
2021/12/03 06:07:25;;;;;;;26.90;15.18;;;;;;;0.79;88.47;97807.06;4964321;28;20057;-87
2021/12/03 08:22:23;;;;;;;17.55;11.73;;;;;;;1.59;82.37;97860.97;4992109;28;20089;-85
2021/12/03 08:24:50;;;;;;;17.73;12.07;;;;;;;1.61;82.74;97878.03;4945201;28;20419;-86
2021/12/03 08:27:15;;;;;;;17.08;12.63;;;;;;;1.58;82.10;97869.50;4959223;28;20034;-85
2021/12/03 08:29:41;;;;;;;16.92;12.15;;;;;;;1.56;81.93;97873.72;4924429;29;20043;-84
2021/12/03 08:32:07;;;;;;;20.23;11.98;;;;;;;1.57;82.32;97875.47;4937678;28;20575;-85
2021/12/03 08:34:33;;;;;;;17.25;11.82;;;;;;;1.59;82.45;97868.63;4958714;28;20078;-85
2021/12/03 08:36:59;;;;;;;20.65;14.00;;;;;;;1.58;82.08;97857.56;4927019;28;20129;-85
2021/12/03 08:39:25;;;;;;;17.67;12.75;;;;;;;1.65;82.14;97863.53;4927607;28;20038;-86
2021/12/03 08:41:51;;;;;;;18.92;12.98;;;;;;;1.59;82.19;97859.25;4943775;28;20174;-85
2021/12/03 08:44:16;;;;;;;20.65;12.63;;;;;;;1.65;82.00;97866.97;4924275;29;20490;-84
2021/12/03 08:46:43;;;;;;;20.25;12.60;;;;;;;1.63;82.30;97870.34;4932378;29;20103;-85
2021/12/03 08:49:13;;;;;;;19.20;12.40;;;;;;;1.60;81.88;97862.66;4936212;29;20047;-85
2021/12/03 08:57:13;;;;;;;21.38;12.73;;;;;;;1.62;81.79;97874.63;4898420;29;20054;-84
2021/12/03 08:59:38;;;;;;;17.52;12.00;;;;;;;1.57;81.62;97862.69;4902071;29;20036;-85
2021/12/03 09:02:04;;;;;;;18.15;11.63;;;;;;;1.61;81.70;97877.19;4938567;28;20096;-86
2021/12/03 09:04:30;;;;;;;16.67;11.40;;;;;;;1.61;82.07;97872.91;4930511;28;20033;-86
2021/12/03 09:06:57;;;;;;;17.95;11.80;;;;;;;1.59;81.62;97883.97;4932178;28;20058;-85
2021/12/03 09:09:24;;;;;;;19.27;12.10;;;;;;;1.61;81.58;97883.13;4929617;29;20137;-85
2021/12/03 09:11:50;;;;;;;17.75;10.65;;;;;;;1.67;81.87;97870.38;4945941;28;20084;-84
2021/12/03 09:14:26;;;;;;;17.67;11.88;;;;;;;1.64;81.52;97872.06;4946736;28;20038;-84
2021/12/03 09:17:22;;;;;;;19.80;12.77;;;;;;;1.64;81.44;97875.47;4948974;28;20106;-85
2021/12/03 09:23:03;;;;;;;19.38;10.48;;;;;;;1.67;80.79;97872.06;4952625;28;20061;-85
2021/12/03 09:25:03;;;;;;;16.20;11.93;;;;;;;1.64;81.05;97870.34;4960019;28;20438;-84
2021/12/03 09:27:29;;;;;;;17.23;11.27;;;;;;;1.75;81.15;97868.69;4972387;28;20033;-85
2021/12/03 09:29:56;;;;;;;16.40;10.75;;;;;;;1.68;80.39;97863.53;4962743;28;20039;-85
2021/12/03 09:32:25;;;;;;;15.65;10.38;;;;;;;1.66;80.62;97860.16;4967095;28;20038;-85
2021/12/03 09:34:50;;;;;;;17.45;11.43;;;;;;;1.64;80.45;97889.94;4967454;28;20517;-85
2021/12/03 09:37:16;;;;;;;17.33;11.45;;;;;;;1.67;80.40;97885.69;4954449;28;20029;-84
2021/12/03 09:39:44;;;;;;;17.25;11.48;;;;;;;1.65;80.82;97886.53;4997464;28;20038;-85
2021/12/03 09:42:10;;;;;;;17.05;10.90;;;;;;;1.66;80.55;97871.22;4975909;28;20104;-84
2021/12/03 09:44:40;;;;;;;19.65;11.77;;;;;;;1.63;80.42;97885.69;4934934;28;20038;-84
2021/12/03 09:47:06;;;;;;;15.70;9.90;;;;;;;1.67;80.43;97872.06;4963493;28;20492;-85
2021/12/03 09:56:57;;;;;;;19.08;11.60;;;;;;;1.58;80.74;97866.94;4980170;28;20051;-85
2021/12/03 10:15:09;;;;;;;13.68;9.85;;;;;;;1.66;80.04;97858.44;4973424;28;20464;-86
2021/12/03 10:17:57;;;;;;;14.73;9.65;;;;;;;1.62;80.78;97837.97;4952416;28;20054;-85
2021/12/03 10:20:43;;;;;;;14.68;10.05;;;;;;;1.68;80.54;97840.53;4956554;28;20103;-86
2021/12/03 10:47:27;;;;;;;17.60;9.43;;;;;;;1.79;80.56;97828.66;4977728;28;20049;-85
2021/12/03 11:04:11;;;;;;;16.40;11.43;;;;;;;1.91;80.51;97833.75;4956421;28;20050;-85
2021/12/03 11:39:11;;;;;;;20.55;13.07;;;;;;;1.92;82.05;97743.41;4940093;28;20049;-86
2021/12/03 12:27:28;;;;;;;23.27;16.13;;;;;;;1.68;84.36;97728.09;4988338;28;20042;-90
2021/12/03 12:33:01;;;;;;;27.52;17.38;;;;;;;1.59;84.89;97710.19;4986185;28;20110;-87
2021/12/03 14:50:10;;;;;;;;;;;;;;;1.21;89.34;97655.69;4905256;28;20136;-87
2021/12/03 14:53:08;;;;;;;14.98;10.63;;;;;;;1.10;89.21;97653.94;4972317;28;20012;-88
2021/12/03 14:55:34;;;;;;;;;;;;;;;1.14;89.38;97653.94;4978856;28;20042;-88
2021/12/03 14:58:04;;;;;;;13.82;9.52;;;;;;;1.06;89.25;97636.94;4967790;28;19957;-85
2021/12/03 15:56:09;;;;;;;10.88;8.05;;;;;;;0.96;89.60;97636.06;4967669;28;20565;-87
2021/12/03 16:04:18;;;;;;;10.48;7.65;;;;;;;0.86;89.77;97619.88;4957588;28;20611;-86
2021/12/03 16:17:10;;;;;;;11.68;8.45;;;;;;;0.93;89.80;97620.75;4956165;28;20061;-85
2021/12/03 16:22:30;;;;;;;12.05;8.45;;;;;;;0.93;89.94;97641.19;4964183;28;20054;-84
2021/12/03 16:54:05;;;;;;;10.73;7.20;;;;;;;1.20;89.46;97655.69;4961370;28;20062;-86
2021/12/03 16:56:32;;;;;;;9.43;7.10;;;;;;;1.22;89.20;97648.84;4952937;28;20046;-87
2021/12/03 16:58:58;;;;;;;13.85;8.85;;;;;;;1.14;89.26;97640.34;4965211;28;20069;-87
2021/12/03 17:01:33;;;;;;;10.00;6.78;;;;;;;1.10;88.54;97659.06;4970955;28;20038;-87
2021/12/03 17:23:56;;;;;;;8.48;6.43;;;;;;;0.77;89.77;97683.66;4937468;28;20058;-85
2021/12/03 17:31:20;;;;;;;8.60;6.55;;;;;;;0.81;90.04;97674.31;4966993;28;20407;-86
2021/12/03 17:45:00;;;;;;;6.63;5.05;;;;;;;0.73;89.20;97703.25;4975334;28;20090;-85
2021/12/03 17:53:32;;;;;;;8.68;4.75;;;;;;;0.87;89.49;97721.16;4982412;28;20050;-85
2021/12/03 18:00:49;;;;;;;7.40;5.95;;;;;;;0.67;90.25;97718.50;4966855;28;20034;-87
2021/12/03 18:03:28;;;;;;;8.38;5.55;;;;;;;0.74;89.65;97722.81;5002957;28;20528;-85
2021/12/03 18:51:36;;;;;;;5.32;4.25;;;;;;;0.90;87.27;97763.69;4946756;28;20049;-86
2021/12/03 18:56:51;;;;;;;6.68;5.25;;;;;;;0.81;86.86;97777.28;4969732;28;20058;-88
2021/12/03 18:59:17;;;;;;;8.10;5.32;;;;;;;0.82;86.98;97784.06;4948505;28;20046;-87
2021/12/03 19:01:43;;;;;;;7.15;5.78;;;;;;;0.75;87.05;97779.81;4951056;28;20114;-88
2021/12/03 19:06:43;;;;;;;8.35;6.43;;;;;;;0.70;86.76;97779.78;4978462;28;20034;-90
2021/12/03 19:09:13;;;;;;;8.07;5.75;;;;;;;0.78;86.72;97779.81;4947148;28;20074;-87
2021/12/03 19:14:07;;;;;;;7.18;4.65;;;;;;;0.67;86.16;97791.66;4977445;28;20040;-85
2021/12/03 19:16:33;;;;;;;6.20;4.70;;;;;;;0.61;86.43;97784.00;4960026;28;20144;-84
2021/12/03 19:19:00;;;;;;;6.55;4.50;;;;;;;0.65;86.59;97788.25;4960826;28;20124;-86
2021/12/03 19:21:27;;;;;;;6.80;4.82;;;;;;;0.63;86.21;97774.63;4964041;28;20039;-86
2021/12/03 19:23:55;;;;;;;6.78;5.03;;;;;;;0.66;86.30;97777.22;4961552;28;20497;-87
2021/12/03 19:26:21;;;;;;;6.03;4.40;;;;;;;0.72;85.84;97792.53;4946073;28;20043;-86
2021/12/03 19:28:48;;;;;;;5.97;4.53;;;;;;;0.64;85.78;97782.31;4974758;28;20401;-86
2021/12/03 19:31:14;;;;;;;6.47;4.47;;;;;;;0.65;85.76;97786.56;4951453;28;20179;-85
2021/12/03 19:33:40;;;;;;;5.32;4.07;;;;;;;0.62;85.25;97791.63;4960010;28;20034;-86
2021/12/03 19:36:06;;;;;;;7.55;4.70;;;;;;;0.63;85.44;97790.78;4962277;28;20038;-87
2021/12/03 19:38:35;;;;;;;6.22;4.35;;;;;;;0.62;85.27;97804.41;4975552;28;20544;-87
2021/12/03 19:41:08;;;;;;;6.65;4.63;;;;;;;0.44;85.04;97800.03;4961987;28;20490;-86
2021/12/03 19:43:50;;;;;;;5.32;4.00;;;;;;;0.54;85.41;97805.19;4960414;28;20088;-87
2021/12/03 19:46:24;;;;;;;5.03;4.15;;;;;;;0.50;85.59;97795.00;4965821;28;20053;-85
2021/12/03 19:51:21;;;;;;;7.90;5.53;;;;;;;0.48;84.81;97801.78;4980983;28;20045;-86
2021/12/03 19:53:59;;;;;;;6.03;4.53;;;;;;;0.50;85.06;97795.00;4939320;28;20052;-86
2021/12/03 19:56:30;;;;;;;7.50;4.97;;;;;;;0.44;84.69;97805.13;4966390;28;20035;-87
2021/12/03 19:58:59;;;;;;;6.50;4.55;;;;;;;0.52;84.67;97806.91;4960698;28;20042;-85
2021/12/03 20:01:28;;;;;;;6.68;4.70;;;;;;;0.37;84.45;97802.56;4962366;28;20053;-87
2021/12/03 20:03:54;;;;;;;6.50;4.70;;;;;;;0.29;84.86;97805.06;4945532;28;20097;-85
2021/12/03 20:06:22;;;;;;;7.50;4.93;;;;;;;0.33;84.88;97806.78;4975105;28;20473;-87
2021/12/03 20:08:54;;;;;;;9.45;4.45;;;;;;;0.45;84.85;97811.09;4968136;28;20044;-87
2021/12/03 20:11:25;;;;;;;6.50;4.78;;;;;;;0.33;84.52;97806.78;4948208;28;20143;-86
2021/12/03 20:13:52;;;;;;;5.28;3.55;;;;;;;0.33;84.58;97801.69;4954789;28;20073;-87
2021/12/03 20:16:36;;;;;;;5.97;4.10;;;;;;;0.38;84.64;97797.47;4956542;28;20026;-86
2021/12/03 20:19:18;;;;;;;5.88;4.82;;;;;;;0.46;83.77;97805.19;4937409;28;20042;-86
2021/12/03 20:21:52;;;;;;;6.90;4.32;;;;;;;0.43;83.86;97808.53;4961429;28;20547;-85
2021/12/03 20:24:27;;;;;;;7.57;4.47;;;;;;;0.53;83.62;97812.00;4964695;28;20096;-87
2021/12/03 20:34:50;;;;;;;5.40;4.10;;;;;;;0.32;83.10;97843.34;4950048;28;20412;-85
2021/12/03 20:37:19;;;;;;;6.60;4.55;;;;;;;0.17;82.76;97831.31;4962387;28;20101;-84
2021/12/03 20:39:46;;;;;;;4.80;3.75;;;;;;;0.26;83.21;97838.16;4976957;28;20118;-85
2021/12/03 20:49:58;;;;;;;8.13;5.05;;;;;;;0.08;83.57;97840.59;4968394;28;20054;-87
2021/12/03 20:52:37;;;;;;;5.97;4.90;;;;;;;0.11;83.52;97863.56;4959494;28;20042;-86
2021/12/03 21:08:28;;;;;;;6.57;4.80;;;;;;;-0.10;83.85;97826.84;4967679;28;20045;-86
2021/12/03 21:10:58;;;;;;;7.82;4.45;;;;;;;-0.04;84.03;97823.50;4961417;28;20038;-86
2021/12/03 21:13:43;;;;;;;7.00;4.70;;;;;;;-0.04;83.94;97842.19;4951480;28;20406;-86
2021/12/03 21:21:07;;;;;;;8.07;4.85;;;;;;;0.01;83.15;97854.97;4967098;28;20465;-86
2021/12/03 21:23:41;;;;;;;6.60;4.68;;;;;;;-0.15;82.88;97864.16;4963996;28;20055;-85
2021/12/03 21:26:10;;;;;;;7.30;4.43;;;;;;;-0.17;82.94;97842.94;4968212;28;20038;-86
2021/12/03 21:40:09;;;;;;;4.97;3.22;;;;;;;0.13;81.09;97867.81;4977741;28;20045;-85
2021/12/03 21:42:36;;;;;;;5.38;3.35;;;;;;;0.27;80.50;97865.38;4959663;28;20030;-85
2021/12/03 21:45:01;;;;;;;5.40;3.22;;;;;;;0.22;80.37;97862.78;4951040;28;20426;-86
2021/12/03 21:47:27;;;;;;;4.97;3.13;;;;;;;0.22;79.99;97849.19;4965343;28;20042;-87
2021/12/03 21:49:53;;;;;;;5.38;3.65;;;;;;;0.22;79.40;97870.44;4934233;28;20037;-85
2021/12/03 21:52:19;;;;;;;6.43;3.83;;;;;;;0.09;78.97;97871.22;4982606;28;20133;-85
2021/12/03 21:54:44;;;;;;;5.70;4.28;;;;;;;-0.18;79.76;97864.16;4950704;28;20429;-86
2021/12/03 21:57:10;;;;;;;5.68;3.90;;;;;;;-0.22;80.81;97882.81;4963991;28;20041;-85
2021/12/03 21:59:36;;;;;;;7.47;4.25;;;;;;;-0.35;80.87;97880.97;4966772;28;20038;-86
2021/12/03 22:02:02;;;;;;;6.47;4.00;;;;;;;-0.48;81.29;97885.06;4965866;28;20399;-86
2021/12/03 22:04:30;;;;;;;5.85;3.88;;;;;;;-0.48;80.83;97882.53;4977618;28;20045;-86
2021/12/03 22:06:57;;;;;;;6.95;3.78;;;;;;;-0.69;81.04;97885.66;4960857;28;20061;-85
2021/12/03 22:09:23;;;;;;;5.07;3.47;;;;;;;-0.51;81.15;97879.94;4965480;28;20453;-86
2021/12/03 22:11:51;;;;;;;6.28;3.70;;;;;;;-0.55;80.43;97873.97;4964849;28;20096;-85
2021/12/03 22:14:17;;;;;;;7.07;3.75;;;;;;;-0.74;80.79;97884.75;4980520;28;20555;-85
2021/12/03 22:16:42;;;;;;;5.38;3.67;;;;;;;-0.63;80.81;97884.91;4980291;28;20042;-85
2021/12/03 22:19:08;;;;;;;5.00;3.70;;;;;;;-0.65;80.67;97882.31;4948321;28;20489;-86
2021/12/03 22:21:34;;;;;;;6.28;3.72;;;;;;;-0.57;80.25;97880.72;4964157;28;20042;-86
2021/12/03 22:24:00;;;;;;;6.03;3.75;;;;;;;-0.68;80.76;97891.63;4963472;28;20046;-86
2021/12/03 22:26:26;;;;;;;5.40;3.33;;;;;;;-0.56;80.65;97897.72;4993119;28;20076;-85
2021/12/03 22:28:53;;;;;;;7.47;3.42;;;;;;;-0.64;80.34;97888.25;5001877;28;20033;-85
2021/12/03 22:31:18;;;;;;;5.70;3.30;;;;;;;-0.73;80.31;97885.59;4987165;28;20049;-85
2021/12/03 22:33:44;;;;;;;4.50;3.42;;;;;;;-0.79;80.16;97897.44;4963800;28;20041;-85
2021/12/03 22:36:10;;;;;;;4.93;3.05;;;;;;;-0.92;79.90;97887.06;4962325;28;20042;-85
2021/12/03 22:38:36;;;;;;;5.63;3.78;;;;;;;-0.88;80.04;97896.47;4974621;28;20116;-86
2021/12/03 22:41:04;;;;;;;5.25;3.33;;;;;;;-0.90;79.84;97895.59;4963708;28;20042;-86
2021/12/03 22:43:33;;;;;;;5.75;3.13;;;;;;;-0.86;79.78;97887.19;4964512;28;20046;-85